Durbuy, Belgium
Current Conditions -  °F | °C
As of 2:20 PM on Sunday 21 Dec 2014 (Local Time) from EBLG Reporting Station
Broken Clouds Broken Clouds  
Wind Chill: 37°   Ceiling: 1800
Heat Index: 45°   Visibility: 6mi
Dew Point: 39°   Wind: 18mph
Humidity: 81%   Direction: 220°SW
Pressure: 30.36"   Gusts: NA
Location:  50.35°N, 5.46°E
Report Text: EBLG 211320Z 22016KT 9999 FEW011 BKN018 07/04 Q1028 NOSIG
Loading
Personal Weather Stations






























Interactive Weather Map New forecast layout! Learn more

10-Day Weather Forecast

Advertisements
Track Severe Weather on mobile